Home > Products > Valid Products > TAF

000
FTUS42 KILM 281700
TAFFLO
TAF
KFLO 281729Z 2818/0118 04012KT P6SM FEW040 SCT080
     FM282300 04010KT P6SM BKN035
     FM010700 04008KT P6SM -RA BKN015 OVC070
     FM011500 05006KT 6SM -RA BKN006 OVC012=



000
FTUS42 KILM 281700
TAFCRE
TAF
KCRE 281729Z 2818/0118 03012KT P6SM SCT035 BKN050 BKN080
     FM010500 03008KT 6SM BR BKN015 BKN080
      TEMPO 0110/0114 BKN007
     FM011600 VRB05KT P6SM VCSH SCT010 BKN025=



000
FTUS42 KILM 281700
TAFMYR
TAF
KMYR 281729Z 2818/0118 02012KT P6SM SCT035 BKN050 BKN080
     FM010500 03008KT 6SM BR BKN015 BKN080
      TEMPO 0110/0114 -RA BKN007
     FM011600 VRB05KT P6SM VCSH SCT010 BKN025=



000
FTUS42 KILM 281700
TAFFLO
TAF
KFLO 281729Z 2818/0118 04012KT P6SM FEW040 SCT080
     FM282300 04010KT P6SM BKN035
     FM010700 04008KT P6SM -RA BKN015 OVC070
     FM011500 05006KT 6SM -RA BKN006 OVC012=



000
FTUS42 KILM 281700
TAFILM
TAF
KILM 281729Z 2818/0118 02011KT P6SM SCT030 BKN050 BKN080
     FM010500 02008KT 6SM BR BKN015 BKN080
      TEMPO 0111/0115 BKN008
     FM011600 14007KT P6SM VCSH SCT010 BKN025=



000
FTUS42 KILM 281700
TAFCRE
TAF
KCRE 281729Z 2818/0118 03012KT P6SM SCT035 BKN050 BKN080
     FM010500 03008KT 6SM BR BKN015 BKN080
      TEMPO 0110/0114 BKN007
     FM011600 VRB05KT P6SM VCSH SCT010 BKN025=



000
FTUS42 KILM 281700
TAFLBT
TAF
KLBT 281729Z 2818/0118 04012KT P6SM FEW040 SCT080
     FM010100 04010KT P6SM BKN035
     FM010900 04008KT P6SM -RA BKN015 OVC070
     FM011400 06005KT 6SM -RA BKN006 OVC012=



000
FTUS42 KILM 281700
TAFMYR
TAF
KMYR 281729Z 2818/0118 02012KT P6SM SCT035 BKN050 BKN080
     FM010500 03008KT 6SM BR BKN015 BKN080
      TEMPO 0110/0114 -RA BKN007
     FM011600 VRB05KT P6SM VCSH SCT010 BKN025=



000
FTUS42 KILM 281700
TAFILM
TAF
KILM 281729Z 2818/0118 02011KT P6SM SCT030 BKN050 BKN080
     FM010500 02008KT 6SM BR BKN015 BKN080
      TEMPO 0111/0115 BKN008
     FM011600 14007KT P6SM VCSH SCT010 BKN025=



000
FTUS42 KILM 281700
TAFLBT
TAF
KLBT 281729Z 2818/0118 04012KT P6SM FEW040 SCT080
     FM010100 04010KT P6SM BKN035
     FM010900 04008KT P6SM -RA BKN015 OVC070
     FM011400 06005KT 6SM -RA BKN006 OVC012=



000
FTUS42 KILM 281200 CCA
TAFILM
TAF COR
KILM 281217Z 2812/0112 03013G18KT P6SM SCT040 SCT160
      TEMPO 2812/2814 5SM BR
     FM281700 03013G18KT P6SM BKN035
     FM010200 02013G20KT P6SM BKN020
     FM011000 03013G20KT P6SM -RA OVC008=



000
FTUS42 KILM 281200 CCA
TAFILM
TAF COR
KILM 281217Z 2812/0112 03013G18KT P6SM SCT040 SCT160
      TEMPO 2812/2814 5SM BR
     FM281700 03013G18KT P6SM BKN035
     FM010200 02013G20KT P6SM BKN020
     FM011000 03013G20KT P6SM -RA OVC008=



000
FTUS42 KILM 281100 CCA
TAFLBT
TAF COR
KLBT 281155Z 2812/0112 05012G19KT P6SM FEW040 SCT160
      TEMPO 2812/2814 3SM BR
     FM010100 05012G19KT P6SM BKN030
     FM010500 04012G21KT P6SM -RA BKN015
     FM011100 04011G19KT 6SM -RA OVC006=



000
FTUS42 KILM 281100 CCA
TAFLBT
TAF COR
KLBT 281155Z 2812/0112 05012G19KT P6SM FEW040 SCT160
      TEMPO 2812/2814 3SM BR
     FM010100 05012G19KT P6SM BKN030
     FM010500 04012G21KT P6SM -RA BKN015
     FM011100 04011G19KT 6SM -RA OVC006=



000
FTUS42 KILM 281100
TAFILM
TAF
KILM 281137Z 2812/0112 03013G18KT P6SM SCT040 SCT160
      TEMPO 2812/2814 5SM BR BKN009
     FM281700 03013G18KT P6SM BKN035
     FM010200 02013G20KT P6SM BKN020
     FM011000 03013G20KT P6SM -RA OVC008=



000
FTUS42 KILM 281100
TAFMYR
TAF
KMYR 281137Z 2812/0112 02013G18KT P6SM SCT040 SCT160
     FM281700 02013G18KT P6SM BKN030
     FM010200 01013G22KT P6SM BKN015
     FM010900 02013G20KT P6SM -RA OVC006=



000
FTUS42 KILM 281100
TAFLBT
TAF
KLBT 281137Z 2812/0112 05012G19KT P6SM FEW040 SCT160
      TEMPO 2812/2814 4SM BR BKN009
     FM010100 05012G19KT P6SM BKN030
     FM010500 04012G21KT P6SM -RA BKN015
     FM011100 04011G19KT 6SM -RA OVC006=



000
FTUS42 KILM 281100
TAFCRE
TAF
KCRE 281137Z 2812/0112 03013G18KT P6SM SCT040 SCT160
     FM281700 03013G18KT P6SM BKN030
     FM010200 02013G20KT P6SM BKN015
     FM010900 03013G20KT P6SM -RA OVC007=



000
FTUS42 KILM 281100
TAFFLO
TAF
KFLO 281137Z 2812/0112 03012G19KT P6SM FEW040 SCT160
     FM282300 04012G19KT P6SM BKN030
     FM010400 04012G21KT P6SM -RA BKN015
     FM011000 04011G19KT 6SM -RA OVC006=



000
FTUS42 KILM 280500
TAFMYR
TAF
KMYR 280520Z 2806/0106 03005KT P6SM SCT200
     FM281300 04012G18KT P6SM BKN200
     FM281900 02015KT P6SM BKN050 BKN100
     FM010200 02012G22KT P6SM BKN025
      AMD LTD TO CLD VIS AND WIND TIL 281100=



000
FTUS42 KILM 280500
TAFLBT
TAF
KLBT 280520Z 2806/0106 04007KT P6SM SCT200
     FM281300 04011G17KT P6SM SCT100 BKN200
     FM282100 03011KT P6SM SCT025 BKN050 BKN100=



000
FTUS42 KILM 280500
TAFCRE
TAF
KCRE 280520Z 2806/0106 03005KT P6SM SCT200
     FM281300 03014G23KT P6SM SCT040 BKN150
     FM281900 03012KT P6SM BKN050 BKN100
     FM010200 02014G18KT P6SM BKN025=



000
FTUS42 KILM 280500
TAFILM
TAF
KILM 280520Z 2806/0106 04007KT P6SM SCT200
     FM281300 03012G22KT P6SM SCT040 BKN150
     FM281900 02011KT P6SM BKN050 BKN100
     FM010200 02011G18KT P6SM BKN025=



000
FTUS42 KILM 280500
TAFFLO
TAF
KFLO 280520Z 2806/0106 04005KT P6SM SCT200
     FM281300 05011G18KT P6SM SCT100 BKN200
     FM282100 05011KT P6SM SCT025 BKN050 BKN100=



000
FTUS42 KILM 280500
TAFLBT
TAF
KLBT 280520Z 2806/0106 04007KT P6SM SCT200
     FM281300 04011G17KT P6SM SCT100 BKN200
     FM282100 03011KT P6SM SCT025 BKN050 BKN100=



000
FTUS42 KILM 280500
TAFILM
TAF
KILM 280520Z 2806/0106 04007KT P6SM SCT200
     FM281300 03012G22KT P6SM SCT040 BKN150
     FM281900 02011KT P6SM BKN050 BKN100
     FM010200 02011G18KT P6SM BKN025=



000
FTUS42 KILM 280500
TAFCRE
TAF
KCRE 280520Z 2806/0106 03005KT P6SM SCT200
     FM281300 03014G23KT P6SM SCT040 BKN150
     FM281900 03012KT P6SM BKN050 BKN100
     FM010200 02014G18KT P6SM BKN025=



000
FTUS42 KILM 280500
TAFMYR
TAF
KMYR 280520Z 2806/0106 03005KT P6SM SCT200
     FM281300 04012G18KT P6SM BKN200
     FM281900 02015KT P6SM BKN050 BKN100
     FM010200 02012G22KT P6SM BKN025
      AMD LTD TO CLD VIS AND WIND TIL 281100=



000
FTUS42 KILM 280500
TAFFLO
TAF
KFLO 280520Z 2806/0106 04005KT P6SM SCT200
     FM281300 05011G18KT P6SM SCT100 BKN200
     FM282100 05011KT P6SM SCT025 BKN050 BKN100=



000
FTUS42 KILM 272300
TAFLBT
TAF
KLBT 272328Z 2800/2824 04004KT P6SM SCT250
     FM280300 03009KT P6SM SCT025 SCT200
     FM281300 04011G17KT P6SM SCT100 BKN200
     FM281800 03011KT P6SM SCT025 BKN100=



000
FTUS42 KILM 272300
TAFFLO
TAF
KFLO 272328Z 2800/2824 05006KT P6SM SCT250
     FM280200 04007KT P6SM SCT025 SCT200
     FM281300 05011G18KT P6SM SCT100 BKN200
     FM281800 05011KT P6SM SCT025 BKN100=



000
FTUS42 KILM 272300
TAFILM
TAF
KILM 272328Z 2800/2824 VRB04KT P6SM SCT250
     FM280300 02010KT P6SM SCT025 SCT200
     FM281300 03012G22KT P6SM SCT040 BKN150
     FM281900 02011KT P6SM BKN050 BKN100=



000
FTUS42 KILM 272300
TAFCRE
TAF
KCRE 272328Z 2800/2824 VRB04KT P6SM SCT250
     FM280300 03007KT P6SM SCT025 SCT200
     FM281300 03014G23KT P6SM SCT040 BKN150
     FM281900 03012KT P6SM BKN050 BKN100=



000
FTUS42 KILM 272300
TAFMYR
TAF
KMYR 272328Z 2800/2824 VRB04KT P6SM SCT250
     FM280300 03009KT P6SM SCT025 SCT200
     FM281300 04012G18KT P6SM BKN200
     FM281900 02015KT P6SM BKN050 BKN100
      AMD LTD TO CLD VIS AND WIND 2804/2811=



000
FTUS42 KILM 272300
TAFCRE
TAF
KCRE 272328Z 2800/2824 VRB04KT P6SM SCT250
     FM280300 03007KT P6SM SCT025 SCT200
     FM281300 03014G23KT P6SM SCT040 BKN150
     FM281900 03012KT P6SM BKN050 BKN100=



000
FTUS42 KILM 272300
TAFILM
TAF
KILM 272328Z 2800/2824 VRB04KT P6SM SCT250
     FM280300 02010KT P6SM SCT025 SCT200
     FM281300 03012G22KT P6SM SCT040 BKN150
     FM281900 02011KT P6SM BKN050 BKN100=



000
FTUS42 KILM 272300
TAFFLO
TAF
KFLO 272328Z 2800/2824 05006KT P6SM SCT250
     FM280200 04007KT P6SM SCT025 SCT200
     FM281300 05011G18KT P6SM SCT100 BKN200
     FM281800 05011KT P6SM SCT025 BKN100=



000
FTUS42 KILM 272300
TAFMYR
TAF
KMYR 272328Z 2800/2824 VRB04KT P6SM SCT250
     FM280300 03009KT P6SM SCT025 SCT200
     FM281300 04012G18KT P6SM BKN200
     FM281900 02015KT P6SM BKN050 BKN100
      AMD LTD TO CLD VIS AND WIND 2804/2811=



000
FTUS42 KILM 272300
TAFLBT
TAF
KLBT 272328Z 2800/2824 04004KT P6SM SCT250
     FM280300 03009KT P6SM SCT025 SCT200
     FM281300 04011G17KT P6SM SCT100 BKN200
     FM281800 03011KT P6SM SCT025 BKN100=



000
FTUS42 KILM 271700
TAFILM
TAF
KILM 271720Z 2718/2818 02010KT P6SM SCT250
     FM280200 02007KT P6SM SCT025 SCT200
     FM281300 03012G18KT P6SM BKN200=



000
FTUS42 KILM 271700
TAFLBT
TAF
KLBT 271720Z 2718/2818 02009KT P6SM SCT050 SCT250
     FM280200 04007KT P6SM SCT025 SCT200
     FM281300 04011KT P6SM SCT100 BKN200=



000
FTUS42 KILM 271700
TAFFLO
TAF
KFLO 271720Z 2718/2818 02009KT P6SM SCT050 SCT250
     FM280200 04007KT P6SM SCT025 SCT200
     FM281300 04011KT P6SM SCT100 BKN200=



000
FTUS42 KILM 271700
TAFMYR
TAF
KMYR 271720Z 2718/2818 02010KT P6SM SCT250
     FM280200 04007KT P6SM SCT025 SCT200
     FM281300 04012G18KT P6SM BKN200=



000
FTUS42 KILM 271700
TAFCRE
TAF
KCRE 271720Z 2718/2818 02010KT P6SM SCT250
     FM280200 04007KT P6SM SCT025 SCT200
     FM281300 04012G18KT P6SM BKN200=



000
FTUS42 KILM 271200 AAA
TAFILM
TAF AMD
KILM 271218Z 2712/2812 34003KT 3SM BR BKN200
      TEMPO 2712/2713 2SM BR
     FM271330 01008KT P6SM BKN250
     FM271800 36010KT P6SM SCT040
     FM280200 02008KT P6SM SCT025 SCT200=



000
FTUS42 KILM 271200 CCA
TAFCRE
TAF COR
KCRE 271206Z 2712/2812 00000KT 3SM BR BKN200
     FM271330 01007KT P6SM BKN250
     FM271800 02009KT P6SM SCT040
     FM280200 04008KT P6SM SCT025 SCT200=



000
FTUS42 KILM 271200 CCA
TAFLBT
TAF COR
KLBT 271206Z 2712/2812 33004KT 4SM BR BKN250
     FM271330 01007KT P6SM SCT250
     FM271800 03009KT P6SM SCT040 SCT200=



000
FTUS42 KILM 271200 CCA
TAFILM
TAF COR
KILM 271205Z 2712/2812 34003KT 3SM BR BKN200
     FM271330 01008KT P6SM BKN250
     FM271800 36010KT P6SM SCT040
     FM280200 02008KT P6SM SCT025 SCT200=



000
FTUS42 KILM 271100
TAFLBT
TAF
KLBT 271120Z 2712/2812 33004KT P6SM BKN250
     FM271300 01007KT P6SM SCT250
     FM271800 03009KT P6SM SCT040 SCT200=



000
FTUS42 KILM 271100
TAFCRE
TAF
KCRE 271120Z 2712/2812 00000KT P6SM BKN200
     FM271300 01007KT P6SM BKN250
     FM271800 02009KT P6SM SCT040
     FM280200 04008KT P6SM SCT025 SCT200=



000
FTUS42 KILM 271100
TAFFLO
TAF
KFLO 271120Z 2712/2812 35005KT P6SM BKN250
     FM271300 03007KT P6SM SCT250
     FM271700 04009KT P6SM SCT040 SCT200=



000
FTUS42 KILM 271100
TAFMYR
TAF
KMYR 271120Z 2712/2812 35003KT P6SM BKN200
     FM271300 02008KT P6SM BKN250
     FM271800 01011KT P6SM SCT040
     FM280200 03010KT P6SM SCT025 SCT200=



000
FTUS42 KILM 271100
TAFILM
TAF
KILM 271120Z 2712/2812 34003KT P6SM BKN200
      TEMPO 2712/2713 5SM BR
     FM271300 01008KT P6SM BKN250
     FM271800 36010KT P6SM SCT040
     FM280200 02008KT P6SM SCT025 SCT200=



000
FTUS42 KILM 270500
TAFLBT
TAF
KLBT 270525Z 2706/2806 33004KT P6SM SCT015
      TEMPO 2706/2710 4SM BR SCT002
     FM271300 01007KT P6SM SCT250
     FM271800 03009KT P6SM SCT040 SCT200=



000
FTUS42 KILM 270500
TAFMYR
TAF
KMYR 270525Z 2706/2806 35003KT P6SM BKN120
      TEMPO 2709/2712 6SM BR SCT020
     FM271300 02008KT P6SM SCT250
     FM271800 01011KT P6SM SCT040
     FM280200 03010KT P6SM SCT025 SCT200
      AMD LTD TO CLD VIS AND WIND TIL 271100=



000
FTUS42 KILM 270300 AAA
TAFILM
TAF AMD
KILM 270347Z 2704/2724 35006KT P6SM OVC020
      TEMPO 2706/2709 5SM BR SCT020
     FM271300 01008KT P6SM SCT250
     FM271800 36010KT P6SM SCT040=



000
FTUS42 KILM 262300
TAFFLO
TAF
KFLO 262332Z 2700/2724 01006KT P6SM BKN018 OVC025
     FM270300 34006KT P6SM SCT020 BKN250
      TEMPO 2706/2709 4SM BR SCT002
     FM271300 03007KT P6SM SCT250
     FM271700 04009KT P6SM SCT040=



000
FTUS42 KILM 262300
TAFMYR
TAF
KMYR 262332Z 2700/2724 35009KT P6SM BKN018 OVC030
     FM270300 34006KT P6SM SCT020 BKN250
      TEMPO 2706/2709 6SM BR SCT002
     FM271300 02008KT P6SM SCT250
     FM271800 01011KT P6SM SCT040
      AMD LTD TO CLD VIS AND WIND 2704/2711=



000
FTUS42 KILM 262300
TAFCRE
TAF
KCRE 262332Z 2700/2724 36008KT P6SM BKN018 OVC030
     FM270300 36005KT P6SM SCT020 BKN250
      TEMPO 2706/2709 5SM BR SCT003
     FM271300 01007KT P6SM SCT250
     FM271800 03009KT P6SM SCT040=



000
FTUS42 KILM 262300
TAFILM
TAF
KILM 262332Z 2700/2724 34010KT P6SM OVC018
     FM270300 01005KT P6SM SCT020 BKN250
      TEMPO 2706/2709 5SM BR SCT003
     FM271300 01008KT P6SM SCT250
     FM271800 36010KT P6SM SCT040=



000
FTUS42 KILM 262300
TAFLBT
TAF
KLBT 262332Z 2700/2724 36007KT P6SM BKN020 OVC035
     FM270300 34006KT P6SM SCT020 BKN140
      TEMPO 2706/2710 4SM BR SCT002
     FM271300 03007KT P6SM SCT250
     FM271800 01009KT P6SM SCT040=



000
FTUS42 KILM 261700 CCA
TAFLBT
TAF COR
KLBT 261723Z 2618/2718 35012KT P6SM BKN012
     FM270300 34006KT P6SM SCT020 BKN140
      TEMPO 2708/2712 4SM BR SCT002
     FM271300 03007KT P6SM SCT250=



000
FTUS42 KILM 261700 CCA
TAFCRE
TAF COR
KCRE 261721Z 2618/2718 34012KT P6SM BKN014
     FM270300 34006KT P6SM SCT020 BKN140
      TEMPO 2708/2712 4SM BR SCT002
     FM271300 02008KT P6SM SCT250=



000
FTUS42 KILM 261700 CCA
TAFMYR
TAF COR
KMYR 261721Z 2618/2718 34012KT P6SM BKN014
     FM270300 34006KT P6SM SCT020 BKN140
      TEMPO 2708/2712 6SM BR SCT002
     FM271300 02008KT P6SM SCT250=



000
FTUS42 KILM 261700 CCA
TAFMYR
TAF COR
KMYR 261721Z 2618/2718 34012KT P6SM BKN014
     FM270300 34006KT P6SM SCT020 BKN140
      TEMPO 2708/2712 6SM BR SCT002
     FM271300 02008KT P6SM SCT250=



000
FTUS42 KILM 261700
TAFCRE
TAF
KCRE 261720Z 2618/2718 34012KT P6SM BKN014
     FM270300 34006KT P6SM SCT020 BKN140
     FM271300 02008KT P6SM SCT250=



000
FTUS42 KILM 261700
TAFFLO
TAF
KFLO 261720Z 2618/2718 35012KT P6SM BKN012
     FM270300 34006KT P6SM SCT020 BKN140
     FM271300 03007KT P6SM SCT250=



000
FTUS42 KILM 261700
TAFLBT
TAF
KLBT 261720Z 2618/2718 35012KT P6SM BKN012
     FM270300 34006KT P6SM SCT020 BKN140
     FM271300 03007KT P6SM SCT250=



000
FTUS42 KILM 261700
TAFILM
TAF
KILM 261720Z 2618/2718 35012KT P6SM BKN014
     FM270300 34006KT P6SM SCT020 BKN140
     FM271300 01008KT P6SM SCT250=



000
FTUS42 KILM 261700
TAFMYR
TAF
KMYR 261720Z 2618/2718 34012KT P6SM BKN014
     FM270300 34006KT P6SM SCT020 BKN140
     FM271300 02008KT P6SM SCT250=



000
FTUS42 KILM 261700
TAFMYR
TAF
KMYR 261720Z 2618/2718 34012KT P6SM BKN014
     FM270300 34006KT P6SM SCT020 BKN140
     FM271300 02008KT P6SM SCT250=



000
FTUS42 KILM 261700
TAFCRE
TAF
KCRE 261720Z 2618/2718 34012KT P6SM BKN014
     FM270300 34006KT P6SM SCT020 BKN140
     FM271300 02008KT P6SM SCT250=



000
FTUS42 KILM 261700
TAFFLO
TAF
KFLO 261720Z 2618/2718 35012KT P6SM BKN012
     FM270300 34006KT P6SM SCT020 BKN140
     FM271300 03007KT P6SM SCT250=



000
FTUS42 KILM 261700
TAFLBT
TAF
KLBT 261720Z 2618/2718 35012KT P6SM BKN012
     FM270300 34006KT P6SM SCT020 BKN140
     FM271300 03007KT P6SM SCT250=



000
FTUS42 KILM 261700 CCA
TAFILM
TAF COR
KILM 261720Z 2618/2718 35012KT P6SM BKN014
     FM270300 34006KT P6SM SCT020 BKN140
      TEMPO 2708/2712 5SM BR SCT002
     FM271300 01008KT P6SM SCT250=



000
FTUS42 KILM 261400 AAA
TAFMYR
TAF AMD
KMYR 261413Z 2614/2712 36010G16KT P6SM OVC012
     FM262300 01005KT P6SM BKN020=



000
FTUS42 KILM 261400 AAA
TAFMYR
TAF AMD
KMYR 261413Z 2614/2712 36010G16KT P6SM OVC012
     FM262300 01005KT P6SM BKN020=



000
FTUS42 KILM 261400 AAA
TAFCRE
TAF AMD
KCRE 261404Z 2614/2712 35011KT P6SM BKN010
     FM262300 01005KT P6SM BKN020=



000
FTUS42 KILM 261200 CCA
TAFILM
TAF COR
KILM 261236Z 2612/2712 02011KT P6SM -RA BKN005 BKN025
     FM261400 35013G17KT P6SM BKN011
     FM261700 36012KT 6SM BR SCT004 OVC012
     FM262300 36006KT P6SM BKN015=



000
FTUS42 KILM 261200 AAA
TAFLBT
TAF AMD
KLBT 261231Z 2613/2712 35012G18KT 5SM BR OVC007
      TEMPO 2613/2615 BKN010
     FM261500 35010G14KT 5SM -DZ BR OVC007
     FM261700 36010KT 6SM BR SCT006 OVC015
     FM270100 01005KT P6SM BKN025=



000
FTUS42 KILM 261100
TAFLBT
TAF
KLBT 261120Z 2612/2712 35012G18KT 5SM BR OVC007
     FM261400 35010G14KT 5SM -DZ BR OVC007
     FM261700 36010KT 6SM BR SCT006 OVC015
     FM270100 01005KT P6SM BKN025=



000
FTUS42 KILM 261100
TAFILM
TAF
KILM 261120Z 2612/2712 02011KT P6SM -RA BKN005 BKN025
     FM261300 35013G17KT P6SM BKN004
     FM261700 36012KT 6SM BR SCT004 OVC012
     FM262300 36006KT P6SM BKN015=



000
FTUS42 KILM 261100
TAFFLO
TAF
KFLO 261120Z 2612/2712 34014G18KT 3SM BR OVC007
     FM261300 35010G15KT 5SM -DZ BR OVC007
     FM261700 36010KT 6SM BR SCT006 OVC015
     FM270100 01005KT P6SM BKN035=



000
FTUS42 KILM 261100
TAFMYR
TAF
KMYR 261120Z 2612/2712 34013KT 6SM BR BKN005
     FM261700 36010KT 6SM BR SCT006 OVC012
     FM262300 01005KT P6SM BKN020=



000
FTUS42 KILM 261100
TAFCRE
TAF
KCRE 261120Z 2612/2712 35011KT 6SM BR BKN004
     FM261700 36010KT 6SM BR SCT006 OVC012
     FM262300 01005KT P6SM BKN020=



000
FTUS42 KILM 261100
TAFLBT
TAF
KLBT 261120Z 2612/2712 35012G18KT 5SM BR OVC007
     FM261400 35010G14KT 5SM -DZ BR OVC007
     FM261700 36010KT 6SM BR SCT006 OVC015
     FM270100 01005KT P6SM BKN025=



000
FTUS42 KILM 261100
TAFILM
TAF
KILM 261120Z 2612/2712 02011KT P6SM -RA BKN005 BKN025
     FM261300 35013G17KT P6SM BKN004
     FM261700 36012KT 6SM BR SCT004 OVC012
     FM262300 36006KT P6SM BKN015=



000
FTUS42 KILM 261100
TAFMYR
TAF
KMYR 261120Z 2612/2712 34013KT 6SM BR BKN005
     FM261700 36010KT 6SM BR SCT006 OVC012
     FM262300 01005KT P6SM BKN020=



000
FTUS42 KILM 261100
TAFFLO
TAF
KFLO 261120Z 2612/2712 34014G18KT 3SM BR OVC007
     FM261300 35010G15KT 5SM -DZ BR OVC007
     FM261700 36010KT 6SM BR SCT006 OVC015
     FM270100 01005KT P6SM BKN035=



000
FTUS42 KILM 260900 AAB
TAFILM
TAF AMD
KILM 260930Z 2610/2706 02011KT 6SM -RA BR BKN005 BKN025
     FM261300 35013G17KT 5SM -DZ BR OVC004
     FM261700 36012KT 6SM BR SCT004 OVC012
     FM262300 36006KT P6SM BKN015=



000
FTUS42 KILM 260900 AAC
TAFCRE
TAF AMD
KCRE 260930Z 2610/2706 03011KT P6SM BKN007
     FM261300 35013G17KT 5SM -DZ BR OVC005
     FM261700 36010KT 6SM BR SCT006 OVC012
     FM262300 01005KT P6SM BKN020=



000
FTUS42 KILM 260900 AAD
TAFMYR
TAF AMD
KMYR 260904Z 2609/2706 03011KT 6SM -RA BR SCT015 BKN035
      TEMPO 2609/2613 BKN006
     FM261300 35013G17KT 5SM -DZ BR OVC007
     FM261700 36010KT 6SM BR SCT006 OVC012
     FM262300 01005KT P6SM BKN020
      AMD LTD TO CLD AND WIND TIL 261100=



000
FTUS42 KILM 260900 AAD
TAFMYR
TAF AMD
KMYR 260904Z 2609/2706 03011KT 6SM -RA BR SCT015 BKN035
      TEMPO 2609/2613 BKN006
     FM261300 35013G17KT 5SM -DZ BR OVC007
     FM261700 36010KT 6SM BR SCT006 OVC012
     FM262300 01005KT P6SM BKN020
      AMD LTD TO CLD AND WIND TIL 261100=



000
FTUS42 KILM 260800 CCA
TAFCRE
TAF COR
KCRE 260822Z 2608/2706 03011KT 6SM -RA BR SCT015 BKN035
      TEMPO 2608/2609 3SM RA BR BKN016
     FM261300 35013G17KT 5SM -DZ BR OVC005
     FM261700 36010KT 6SM BR SCT006 OVC012
     FM262300 01005KT P6SM BKN020=



000
FTUS42 KILM 260800 CCA
TAFCRE
TAF COR
KCRE 260822Z 2608/2706 03011KT 6SM -RA BR SCT015 BKN035
      TEMPO 2608/2609 3SM RA BR BKN016
     FM261300 35013G17KT 5SM -DZ BR OVC005
     FM261700 36010KT 6SM BR SCT006 OVC012
     FM262300 01005KT P6SM BKN020=



000
FTUS42 KILM 260800 AAB
TAFCRE
TAF AMD
KCRE 260821Z 2608/2706 03014G18KT 6SM -RA BR SCT015 BKN035
      TEMPO 2608/2609 3SM RA BR BKN016
     FM261300 35013G17KT 5SM -DZ BR OVC005
     FM261700 36010KT 6SM BR SCT006 OVC012
     FM262300 01005KT P6SM BKN020=



000
FTUS42 KILM 260800 AAB
TAFCRE
TAF AMD
KCRE 260821Z 2608/2706 03014G18KT 6SM -RA BR SCT015 BKN035
      TEMPO 2608/2609 3SM RA BR BKN016
     FM261300 35013G17KT 5SM -DZ BR OVC005
     FM261700 36010KT 6SM BR SCT006 OVC012
     FM262300 01005KT P6SM BKN020=



000
FTUS42 KILM 260800 AAA
TAFILM
TAF AMD
KILM 260820Z 2608/2706 02014G19KT 3SM -RA BR BKN005 BKN025
      TEMPO 2608/2610 1SM +RA BR
     FM261300 35013G17KT 5SM -DZ BR OVC004
     FM261700 36012KT 6SM BR SCT004 OVC012
     FM262300 36006KT P6SM BKN015=



000
FTUS42 KILM 260800 AAA
TAFILM
TAF AMD
KILM 260820Z 2608/2706 02014G19KT 3SM -RA BR BKN005 BKN025
      TEMPO 2608/2610 1SM +RA BR
     FM261300 35013G17KT 5SM -DZ BR OVC004
     FM261700 36012KT 6SM BR SCT004 OVC012
     FM262300 36006KT P6SM BKN015=



000
FTUS42 KILM 260800 CCA
TAFMYR
TAF COR
KMYR 260819Z 2608/2706 03011KT 6SM -RA BR SCT015 BKN035
     FM261300 35013G17KT 5SM -DZ BR OVC007
     FM261700 36010KT 6SM BR SCT006 OVC012
     FM262300 01005KT P6SM BKN020
      AMD LTD TO CLD AND WIND TIL 261100=



000
FTUS42 KILM 260800 CCA
TAFMYR
TAF COR
KMYR 260819Z 2608/2706 03011KT 6SM -RA BR SCT015 BKN035
     FM261300 35013G17KT 5SM -DZ BR OVC007
     FM261700 36010KT 6SM BR SCT006 OVC012
     FM262300 01005KT P6SM BKN020
      AMD LTD TO CLD AND WIND TIL 261100=



000
FTUS42 KILM 260800 AAC
TAFMYR
TAF AMD
KMYR 260818Z 2608/2706 05014G20KT 6SM -RA BR SCT005 BKN025
     FM261300 35013G17KT 5SM -DZ BR OVC007
     FM261700 36010KT 6SM BR SCT006 OVC012
     FM262300 01005KT P6SM BKN020
      AMD LTD TO CLD AND WIND TIL 261100=



000
FTUS42 KILM 260800 AAC
TAFMYR
TAF AMD
KMYR 260818Z 2608/2706 05014G20KT 6SM -RA BR SCT005 BKN025
     FM261300 35013G17KT 5SM -DZ BR OVC007
     FM261700 36010KT 6SM BR SCT006 OVC012
     FM262300 01005KT P6SM BKN020
      AMD LTD TO CLD AND WIND TIL 261100=



000
FTUS42 KILM 260600 AAB
TAFMYR
TAF AMD
KMYR 260620Z 2606/2706 05014G20KT 5SM -RA BR SCT005 BKN025
      TEMPO 2606/2609 2SM RA BR BKN005 OVC015
     FM260900 34014G19KT 5SM -RA BR OVC004
     FM261300 35013G17KT 5SM -DZ BR OVC007
     FM261700 36010KT 6SM BR SCT006 OVC012
     FM262300 01005KT P6SM BKN020
      AMD LTD TO CLD AND WIND TIL 261100=



000
FTUS42 KILM 260600 AAA
TAFCRE
TAF AMD
KCRE 260619Z 2606/2706 03014G18KT 4SM -RA BR SCT005 BKN025
      TEMPO 2606/2610 1SM RA BR BKN005 OVC015
     FM261300 35013G17KT 5SM -DZ BR OVC005
     FM261700 36010KT 6SM BR SCT006 OVC012
     FM262300 01005KT P6SM BKN020=



000
FTUS42 KILM 260600 AAA
TAFCRE
TAF AMD
KCRE 260619Z 2606/2706 03014G18KT 4SM -RA BR SCT005 BKN025
      TEMPO 2606/2610 1SM RA BR BKN005 OVC015
     FM261300 35013G17KT 5SM -DZ BR OVC005
     FM261700 36010KT 6SM BR SCT006 OVC012
     FM262300 01005KT P6SM BKN020=



000
FTUS42 KILM 260600 AAA
TAFMYR
TAF AMD
KMYR 260618Z 2606/2706 05014G20KT 3SM -RA BR BKN005 BKN025
      TEMPO 2606/2609 1SM RA BR SCT005 OVC015
     FM260900 34014G19KT 5SM -RA BR OVC004
     FM261300 35013G17KT 5SM -DZ BR OVC007
     FM261700 36010KT 6SM BR SCT006 OVC012
     FM262300 01005KT P6SM BKN020
      AMD LTD TO CLD AND WIND TIL 261100=



000
FTUS42 KILM 260600 AAA
TAFMYR
TAF AMD
KMYR 260618Z 2606/2706 05014G20KT 3SM -RA BR BKN005 BKN025
      TEMPO 2606/2609 1SM RA BR SCT005 OVC015
     FM260900 34014G19KT 5SM -RA BR OVC004
     FM261300 35013G17KT 5SM -DZ BR OVC007
     FM261700 36010KT 6SM BR SCT006 OVC012
     FM262300 01005KT P6SM BKN020
      AMD LTD TO CLD AND WIND TIL 261100=



000
FTUS42 KILM 260500 CCA
TAFLBT
TAF COR
KLBT 260551Z 2606/2706 02013G17KT 3SM -RA BR BKN006 OVC015
      TEMPO 2606/2608 1SM +RA BR OVC005
     FM260900 35012G17KT 3SM -RA BR OVC006
     FM261400 35010G14KT 5SM -DZ BR OVC007
     FM261700 36010KT 6SM BR SCT006 OVC015
     FM270100 01005KT P6SM BKN025=



000
FTUS42 KILM 260500 CCA
TAFLBT
TAF COR
KLBT 260551Z 2606/2706 02013G17KT 3SM -RA BR BKN006 OVC015
      TEMPO 2606/2608 1SM +RA BR OVC005
     FM260900 35012G17KT 3SM -RA BR OVC006
     FM261400 35010G14KT 5SM -DZ BR OVC007
     FM261700 36010KT 6SM BR SCT006 OVC015
     FM270100 01005KT P6SM BKN025=



000
FTUS42 KILM 260500 CCA
TAFFLO
TAF COR
KFLO 260544Z 2606/2706 02013G17KT 3SM -RA BR BKN005 OVC015
      TEMPO 2606/2608 1SM +RA BR OVC005
     FM260900 34014G16KT 4SM -RA BR OVC006
     FM261300 35010G15KT 5SM -DZ BR OVC007
     FM261700 36010KT 6SM BR SCT006 OVC015
     FM270100 01005KT P6SM BKN035=



000
FTUS42 KILM 260500 CCA
TAFFLO
TAF COR
KFLO 260544Z 2606/2706 02013G17KT 3SM -RA BR BKN005 OVC015
      TEMPO 2606/2608 1SM +RA BR OVC005
     FM260900 34014G16KT 4SM -RA BR OVC006
     FM261300 35010G15KT 5SM -DZ BR OVC007
     FM261700 36010KT 6SM BR SCT006 OVC015
     FM270100 01005KT P6SM BKN035=



000
FTUS42 KILM 260500
TAFILM
TAF
KILM 260540Z 2606/2706 02014G19KT 3SM -RA BR SCT005 BKN025
      TEMPO 2606/2610 1SM +RA BR BKN005 OVC015
     FM261300 35013G17KT 5SM -DZ BR OVC004
     FM261700 36012KT 6SM BR SCT004 OVC012
     FM262300 36006KT P6SM BKN015=



000
FTUS42 KILM 260500
TAFCRE
TAF
KCRE 260540Z 2606/2706 03014G18KT 3SM -RA BR SCT005 BKN025
      TEMPO 2606/2610 1SM +RA BR BKN005 OVC015
     FM261300 35013G17KT 5SM -DZ BR OVC005
     FM261700 36010KT 6SM BR SCT006 OVC012
     FM262300 01005KT P6SM BKN020=



000
FTUS42 KILM 260500
TAFFLO
TAF
KFLO 260540Z 2606/2706 04013G17KT 3SM -RA BR BKN005 OVC020
      TEMPO 2606/2609 1SM +RA BR OVC004
     FM260900 02010KT 2SM BR OVC005
     FM261500 36009KT P6SM BKN007 OVC015=



000
FTUS42 KILM 260500
TAFLBT
TAF
KLBT 260540Z 2606/2706 05012KT 3SM RA BR BKN007 OVC025
      TEMPO 2606/2609 1SM +RA BR OVC005
     FM260900 02011KT 3SM -RA BR OVC005
     FM261400 36010KT 4SM BR BKN006 OVC015=



000
FTUS42 KILM 260500
TAFMYR
TAF
KMYR 260540Z 2606/2706 05014G20KT 3SM -RA BR SCT005 BKN025
      TEMPO 2606/2609 1SM RA BR BKN005 OVC015
     FM260900 34014G19KT 5SM -RA BR OVC004
     FM261300 35013G17KT 5SM -DZ BR OVC007
     FM261700 36010KT 6SM BR SCT006 OVC012
     FM262300 01005KT P6SM BKN020
      AMD LTD TO CLD AND WIND TIL 261100=



000
FTUS42 KILM 260500
TAFMYR
TAF
KMYR 260540Z 2606/2706 05014G20KT 3SM -RA BR SCT005 BKN025
      TEMPO 2606/2609 1SM RA BR BKN005 OVC015
     FM260900 34014G19KT 5SM -RA BR OVC004
     FM261300 35013G17KT 5SM -DZ BR OVC007
     FM261700 36010KT 6SM BR SCT006 OVC012
     FM262300 01005KT P6SM BKN020
      AMD LTD TO CLD AND WIND TIL 261100=



000
FTUS42 KILM 260500
TAFFLO
TAF
KFLO 260540Z 2606/2706 04013G17KT 3SM -RA BR BKN005 OVC020
      TEMPO 2606/2609 1SM +RA BR OVC004
     FM260900 02010KT 2SM BR OVC005
     FM261500 36009KT P6SM BKN007 OVC015=



000
FTUS42 KILM 260500
TAFCRE
TAF
KCRE 260540Z 2606/2706 03014G18KT 3SM -RA BR SCT005 BKN025
      TEMPO 2606/2610 1SM +RA BR BKN005 OVC015
     FM261300 35013G17KT 5SM -DZ BR OVC005
     FM261700 36010KT 6SM BR SCT006 OVC012
     FM262300 01005KT P6SM BKN020=



000
FTUS42 KILM 260500
TAFILM
TAF
KILM 260540Z 2606/2706 02014G19KT 3SM -RA BR SCT005 BKN025
      TEMPO 2606/2610 1SM +RA BR BKN005 OVC015
     FM261300 35013G17KT 5SM -DZ BR OVC004
     FM261700 36012KT 6SM BR SCT004 OVC012
     FM262300 36006KT P6SM BKN015=



000
FTUS42 KILM 260400 AAE
TAFFLO
TAF AMD
KFLO 260443Z 2605/2624 05012G16KT 3SM RA BR BKN005 OVC020
      TEMPO 2605/2609 1SM +RA BR OVC004
     FM260900 02010KT 2SM BR OVC005
     FM261500 36009KT P6SM BKN007 OVC015=



000
FTUS42 KILM 260400 AAD
TAFFLO
TAF AMD
KFLO 260442Z 2605/2624 05012G16KT 3SM RA BR SCT005 OVC020
      TEMPO 2605/2609 1SM +RA BR OVC005
     FM260900 02010KT 2SM BR OVC005
     FM261500 36009KT P6SM BKN007 OVC015=



000
FTUS42 KILM 260400 AAC
TAFLBT
TAF AMD
KLBT 260441Z 2605/2624 05012KT 3SM RA BR BKN007 OVC025
      TEMPO 2605/2609 1SM +RA BR OVC005
     FM260900 02011KT 3SM -RA BR OVC005
     FM261400 36010KT 4SM BR BKN006 OVC015=



000
FTUS42 KILM 260400 AAC
TAFFLO
TAF AMD
KFLO 260437Z 2605/2624 03012G16KT 3SM RA BR SCT005 OVC025
      TEMPO 2605/2609 1SM +RA BR OVC005
     FM260900 36010KT 2SM BR OVC005
     FM261500 02010KT P6SM BKN007 OVC015=



000
FTUS42 KILM 260400 AAB
TAFMYR
TAF AMD
KMYR 260434Z 2605/2624 01013G20KT 3SM -RA BR BKN007 OVC025
      TEMPO 2605/2608 1SM RA BR OVC005
     FM261300 01012KT 3SM BR VCSH OVC004
     FM261600 36011KT P6SM OVC025
      AMD LTD TO CLD VIS AND WIND TIL 261100=



000
FTUS42 KILM 260400 AAB
TAFCRE
TAF AMD
KCRE 260423Z 2604/2624 04013G22KT 3SM RA BR BKN007 OVC025
      TEMPO 2604/2608 1SM +RA BR OVC005
     FM261100 35011KT 3SM BR VCSH OVC004
     FM261500 36010KT 6SM BR OVC012=



000
FTUS42 KILM 260400 AAB
TAFCRE
TAF AMD
KCRE 260423Z 2604/2624 04013G22KT 3SM RA BR BKN007 OVC025
      TEMPO 2604/2608 1SM +RA BR OVC005
     FM261100 35011KT 3SM BR VCSH OVC004
     FM261500 36010KT 6SM BR OVC012=



000
FTUS42 KILM 260300 AAB
TAFFLO
TAF AMD
KFLO 260318Z 2603/2624 07008KT 2SM RA BR OVC045
      TEMPO 2603/2604 4SM -RA BR
     FM260400 05012G25KT 3SM -RA SCT003 OVC007
      TEMPO 2605/2609 1SM BR OVC003
     FM261200 02007KT P6SM OVC007
     FM261500 03007KT P6SM OVC025=



000
FTUS42 KILM 260200 AAB
TAFLBT
TAF AMD
KLBT 260202Z 2602/2624 05007KT 3SM -RA BR OVC050
      TEMPO 2602/2604 4SM -RAPL BR OVC025
     FM260400 04012G20KT 4SM -RA BR OVC007
      TEMPO 2604/2608 2SM -SNPL BR OVC003
     FM260800 02014KT 2SM -SNPL BR OVC002
     FM261000 02013KT 3SM -RASN BR OVC005
     FM261200 02013KT 5SM BR OVC005
     FM261500 02010KT P6SM OVC025=



000
FTUS42 KILM 260200 AAA
TAFFLO
TAF AMD
KFLO 260202Z 2602/2624 11005KT 3SM -RA BR OVC009
      TEMPO 2602/2604 4SM -RAPL BR OVC025
     FM260400 05012G25KT 3SM -RA SCT003 OVC007
      TEMPO 2605/2609 1SM BR OVC003
     FM261200 02007KT P6SM OVC007
     FM261500 03007KT P6SM OVC025=



000
FTUS42 KILM 260200 AAB
TAFLBT
TAF AMD
KLBT 260202Z 2602/2624 05007KT 3SM -RA BR OVC050
      TEMPO 2602/2604 4SM -RAPL BR OVC025
     FM260400 04012G20KT 4SM -RA BR OVC007
      TEMPO 2604/2608 2SM -SNPL BR OVC003
     FM260800 02014KT 2SM -SNPL BR OVC002
     FM261000 02013KT 3SM -RASN BR OVC005
     FM261200 02013KT 5SM BR OVC005
     FM261500 02010KT P6SM OVC025=



000
FTUS42 KILM 260200 AAA
TAFFLO
TAF AMD
KFLO 260202Z 2602/2624 11005KT 3SM -RA BR OVC009
      TEMPO 2602/2604 4SM -RAPL BR OVC025
     FM260400 05012G25KT 3SM -RA SCT003 OVC007
      TEMPO 2605/2609 1SM BR OVC003
     FM261200 02007KT P6SM OVC007
     FM261500 03007KT P6SM OVC025=



000
FTUS42 KILM 260200 AAA
TAFMYR
TAF AMD
KMYR 260201Z 2602/2624 04012KT 4SM -RA BR OVC050
      TEMPO 2602/2604 3SM -RA BR BKN025
     FM260400 02015G22KT 3SM -RA BR OVC007
      TEMPO 2606/2610 1SM RA BR OVC003
     FM261300 01012KT 3SM BR VCSH OVC004
     FM261600 36011KT P6SM OVC025
      AMD LTD TO CLD VIS AND WIND 2604/2611=



000
FTUS42 KILM 260200 AAA
TAFCRE
TAF AMD
KCRE 260200Z 2602/2624 05011KT 3SM -RA BR BKN050
      TEMPO 2602/2604 4SM -RA BKN025
     FM260400 03018G22KT 3SM -RA BR OVC007
      TEMPO 2606/2610 1SM RA BR OVC003
     FM261300 02008KT 3SM BR VCSH OVC004
     FM261600 20009KT P6SM OVC025=



000
FTUS42 KILM 260100 AAA
TAFILM
TAF AMD
KILM 260159Z 2602/2624 05011KT 5SM -RA BR OVC080
      TEMPO 2602/2604 3SM RA
     FM260400 01012G20KT 3SM -RA BR OVC007
      TEMPO 2606/2610 1SM RA BR OVC003
     FM261300 36011KT 4SM BR VCSH OVC004
     FM261600 01010KT P6SM OVC025=



000
FTUS42 KILM 260100 AAA
TAFLBT
TAF AMD
KLBT 260107Z 2601/2624 05007KT 2SM -RA BR OVC050
      TEMPO 2601/2603 4SM -RAPL BR OVC025
     FM260300 04012G20KT 4SM -RA BR OVC007
      TEMPO 2604/2608 2SM -SNPL BR OVC003
     FM260800 02014KT 2SM -SNPL BR OVC002
     FM261000 02013KT 3SM -RASN BR OVC005
     FM261200 02013KT 5SM BR OVC005
     FM261500 02010KT P6SM OVC025=



000
FTUS42 KILM 252300 CCA
TAFFLO
TAF COR
KFLO 252359Z 2600/2624 VRB03KT 3SM -RA BR OVC050
      TEMPO 2600/2603 5SM -RAPL BR OVC025
     FM260300 05012G25KT 3SM -RA SCT003 OVC007
      TEMPO 2605/2609 1SM BR OVC003
     FM261200 02007KT P6SM OVC007
     FM261500 03007KT P6SM OVC025=



000
FTUS42 KILM 252300 CCA
TAFCRE
TAF COR
KCRE 252359Z 2600/2624 04011KT P6SM -RA OVC080
      TEMPO 2600/2603 4SM -RA OVC015
     FM260300 03018G22KT 3SM -RA BR OVC007
      TEMPO 2606/2610 1SM RA BR OVC003
     FM261300 02008KT 3SM BR VCSH OVC004
     FM261600 20009KT P6SM OVC025=



000
FTUS42 KILM 252300 CCA
TAFCRE
TAF COR
KCRE 252359Z 2600/2624 04011KT P6SM -RA OVC080
      TEMPO 2600/2603 4SM -RA OVC015
     FM260300 03018G22KT 3SM -RA BR OVC007
      TEMPO 2606/2610 1SM RA BR OVC003
     FM261300 02008KT 3SM BR VCSH OVC004
     FM261600 20009KT P6SM OVC025=



000
FTUS42 KILM 252300 CCA
TAFFLO
TAF COR
KFLO 252359Z 2600/2624 VRB03KT 3SM -RA BR OVC050
      TEMPO 2600/2603 5SM -RAPL BR OVC025
     FM260300 05012G25KT 3SM -RA SCT003 OVC007
      TEMPO 2605/2609 1SM BR OVC003
     FM261200 02007KT P6SM OVC007
     FM261500 03007KT P6SM OVC025=



000
FTUS42 KILM 252300 CCA
TAFLBT
TAF COR
KLBT 252358Z 2600/2624 VRB03KT P6SM OVC050
      TEMPO 2600/2603 4SM -RAPL BR OVC025
     FM260300 04012G20KT 4SM -RA BR OVC007
      TEMPO 2604/2608 2SM -SNPL BR OVC003
     FM260800 02014KT 2SM -SNPL BR OVC002
     FM261000 02013KT 3SM -RASN BR OVC005
     FM261200 02013KT 5SM BR OVC005
     FM261500 02010KT P6SM OVC025=



000
FTUS42 KILM 252300 CCA
TAFLBT
TAF COR
KLBT 252358Z 2600/2624 VRB03KT P6SM OVC050
      TEMPO 2600/2603 4SM -RAPL BR OVC025
     FM260300 04012G20KT 4SM -RA BR OVC007
      TEMPO 2604/2608 2SM -SNPL BR OVC003
     FM260800 02014KT 2SM -SNPL BR OVC002
     FM261000 02013KT 3SM -RASN BR OVC005
     FM261200 02013KT 5SM BR OVC005
     FM261500 02010KT P6SM OVC025=



000
FTUS42 KILM 252300 CCA
TAFILM
TAF COR
KILM 252357Z 2600/2624 05005KT P6SM OVC080
      TEMPO 2600/2602 5SM -RAPL BKN025
     FM260200 03011KT 5SM -RA BR SCT007 OVC015
     FM260400 01012G20KT 3SM -RA BR OVC007
      TEMPO 2606/2610 1SM RA BR OVC003
     FM261300 36011KT 4SM BR VCSH OVC004
     FM261600 01010KT P6SM OVC025=



000
FTUS42 KILM 252300 CCA
TAFILM
TAF COR
KILM 252357Z 2600/2624 05005KT P6SM OVC080
      TEMPO 2600/2602 5SM -RAPL BKN025
     FM260200 03011KT 5SM -RA BR SCT007 OVC015
     FM260400 01012G20KT 3SM -RA BR OVC007
      TEMPO 2606/2610 1SM RA BR OVC003
     FM261300 36011KT 4SM BR VCSH OVC004
     FM261600 01010KT P6SM OVC025=



000
FTUS42 KILM 252300 CCA
TAFILM
TAF COR
KILM 252353Z 2600/2624 05005KT P6SM OVC080
      TEMPO 2600/2602 5SM -RA BKN025
     FM260200 03011KT 5SM -RA BR SCT007 OVC015
     FM260400 01012G20KT 3SM -RA BR OVC007
      TEMPO 2606/2610 1SM RA BR OVC003
     FM261300 36011KT 4SM BR VCSH OVC004
     FM261600 01010KT P6SM OVC025=



000
FTUS42 KILM 252300 CCA
TAFILM
TAF COR
KILM 252353Z 2600/2624 05005KT P6SM OVC080
      TEMPO 2600/2602 5SM -RA BKN025
     FM260200 03011KT 5SM -RA BR SCT007 OVC015
     FM260400 01012G20KT 3SM -RA BR OVC007
      TEMPO 2606/2610 1SM RA BR OVC003
     FM261300 36011KT 4SM BR VCSH OVC004
     FM261600 01010KT P6SM OVC025=



000
FTUS42 KILM 252300 CCA
TAFMYR
TAF COR
KMYR 252351Z 2600/2624 04012KT 4SM -RA BR OVC015
     FM260300 02015G22KT 3SM -RA BR OVC007
      TEMPO 2606/2610 1SM RA BR OVC003
     FM261300 01012KT 3SM BR VCSH OVC004
     FM261600 36011KT P6SM OVC025
      AMD LTD TO CLD VIS AND WIND 2604/2611=



000
FTUS42 KILM 252300 CCA
TAFMYR
TAF COR
KMYR 252351Z 2600/2624 04012KT 4SM -RA BR OVC015
     FM260300 02015G22KT 3SM -RA BR OVC007
      TEMPO 2606/2610 1SM RA BR OVC003
     FM261300 01012KT 3SM BR VCSH OVC004
     FM261600 36011KT P6SM OVC025
      AMD LTD TO CLD VIS AND WIND 2604/2611=



000
FTUS42 KILM 252300
TAFMYR
TAF
KMYR 252328Z 2600/2624 04012KT 5SM -RA BR OVC015
     FM260300 02015G22KT 3SM -RA BR OVC007
      TEMPO 2606/2610 1SM RA BR OVC003
     FM261300 01012KT 3SM BR VCSH OVC004
     FM261600 36011KT P6SM OVC025
      AMD LTD TO CLD VIS AND WIND 2604/2611=



000
FTUS42 KILM 252300
TAFLBT
TAF
KLBT 252328Z 2600/2624 11009KT 5SM -RA BR OVC050
      TEMPO 2600/2603 4SM -RAPL BR OVC025
     FM260300 04012G20KT 4SM -RA BR OVC007
      TEMPO 2604/2608 2SM -SNPL BR OVC003
     FM260800 02014KT 2SM -SNPL BR OVC002
     FM261000 02013KT 3SM -RASN BR OVC005
     FM261200 02013KT 5SM BR OVC005
     FM261500 02010KT P6SM OVC025=



000
FTUS42 KILM 252300
TAFILM
TAF
KILM 252328Z 2600/2624 03006KT P6SM OVC050
      TEMPO 2600/2601 -RA BKN025
     FM260100 03011KT 5SM -RA BR SCT007 OVC015
     FM260400 01012G20KT 3SM -RA BR OVC007
      TEMPO 2606/2610 1SM RA BR OVC003
     FM261300 36011KT 4SM BR VCSH OVC004
     FM261600 01010KT P6SM OVC025=



000
FTUS42 KILM 252300
TAFFLO
TAF
KFLO 252328Z 2600/2624 10008KT 6SM -RA BR OVC050
      TEMPO 2600/2603 5SM -RAPL BR OVC025
     FM260300 05012G25KT 3SM -RA SCT003 OVC007
      TEMPO 2605/2609 1SM BR OVC003
     FM261200 02007KT P6SM OVC007
     FM261500 03007KT P6SM OVC025=



000
FTUS42 KILM 252300
TAFMYR
TAF
KMYR 252328Z 2600/2624 04012KT 5SM -RA BR OVC015
     FM260300 02015G22KT 3SM -RA BR OVC007
      TEMPO 2606/2610 1SM RA BR OVC003
     FM261300 01012KT 3SM BR VCSH OVC004
     FM261600 36011KT P6SM OVC025
      AMD LTD TO CLD VIS AND WIND 2604/2611=



000
FTUS42 KILM 252300
TAFLBT
TAF
KLBT 252328Z 2600/2624 11009KT 5SM -RA BR OVC050
      TEMPO 2600/2603 4SM -RAPL BR OVC025
     FM260300 04012G20KT 4SM -RA BR OVC007
      TEMPO 2604/2608 2SM -SNPL BR OVC003
     FM260800 02014KT 2SM -SNPL BR OVC002
     FM261000 02013KT 3SM -RASN BR OVC005
     FM261200 02013KT 5SM BR OVC005
     FM261500 02010KT P6SM OVC025=



000
FTUS42 KILM 252300
TAFFLO
TAF
KFLO 252328Z 2600/2624 10008KT 6SM -RA BR OVC050
      TEMPO 2600/2603 5SM -RAPL BR OVC025
     FM260300 05012G25KT 3SM -RA SCT003 OVC007
      TEMPO 2605/2609 1SM BR OVC003
     FM261200 02007KT P6SM OVC007
     FM261500 03007KT P6SM OVC025=



000
FTUS42 KILM 252300
TAFILM
TAF
KILM 252328Z 2600/2624 03006KT P6SM OVC050
      TEMPO 2600/2601 -RA BKN025
     FM260100 03011KT 5SM -RA BR SCT007 OVC015
     FM260400 01012G20KT 3SM -RA BR OVC007
      TEMPO 2606/2610 1SM RA BR OVC003
     FM261300 36011KT 4SM BR VCSH OVC004
     FM261600 01010KT P6SM OVC025=



000
FTUS42 KILM 252300
TAFCRE
TAF
KCRE 252328Z 2600/2624 04011KT 5SM -RA BR OVC050
      TEMPO 2600/2603 4SM -RA OVC015
     FM260300 03018G22KT 3SM -RA BR OVC007
      TEMPO 2606/2610 1SM RA BR OVC003
     FM261300 02008KT 3SM BR VCSH OVC004
     FM261600 20009KT P6SM OVC025=



000
FTUS42 KILM 252100 AAA
TAFILM
TAF AMD
KILM 252103Z 2521/2618 VRB04KT P6SM SCT120
     FM252300 03006KT P6SM OVC050
      TEMPO 2523/2601 -RA BKN025
     FM260100 03011KT 6SM -RA BR SCT007 OVC015
     FM260400 01012G20KT 3SM -RA BR SCT003 OVC007
     FM261300 36011KT 4SM BR VCSH OVC004=



    US Dept of Commerce
    National Oceanic and Atmospheric Administration
    National Weather Service
    1325 East West Highway
    Silver Spring, MD 20910
    Page Author: NWS Internet Services Team
Disclaimer
Information Quality
Credits
Glossary
Privacy Policy
Freedom of Information Act (FOIA)
About Us
Career Opportunities